sensor_id;sensor_type;location;lat;lon;timestamp;P1;durP1;ratioP1;P2;durP2;ratioP2
2824;SDS011;1420;51.324;12.344;2022-08-19T00:00:50;154.80;;;141.90;;
2824;SDS011;1420;51.324;12.344;2022-08-19T00:03:18;122.28;;;112.30;;
2824;SDS011;1420;51.324;12.344;2022-08-19T00:05:45;115.70;;;106.68;;
2824;SDS011;1420;51.324;12.344;2022-08-19T00:08:12;122.58;;;112.08;;
2824;SDS011;1420;51.324;12.344;2022-08-19T00:10:40;122.12;;;111.90;;
2824;SDS011;1420;51.324;12.344;2022-08-19T00:13:08;129.28;;;119.12;;
2824;SDS011;1420;51.324;12.344;2022-08-19T00:15:35;93.18;;;85.24;;
2824;SDS011;1420;51.324;12.344;2022-08-19T00:18:02;118.10;;;106.42;;
2824;SDS011;1420;51.324;12.344;2022-08-19T00:20:30;73.02;;;67.10;;
2824;SDS011;1420;51.324;12.344;2022-08-19T00:22:58;89.88;;;82.30;;
2824;SDS011;1420;51.324;12.344;2022-08-19T00:25:26;125.10;;;115.28;;
2824;SDS011;1420;51.324;12.344;2022-08-19T00:27:53;94.26;;;85.92;;
2824;SDS011;1420;51.324;12.344;2022-08-19T00:30:20;101.32;;;92.06;;
2824;SDS011;1420;51.324;12.344;2022-08-19T00:32:48;113.94;;;98.38;;
2824;SDS011;1420;51.324;12.344;2022-08-19T00:35:15;91.36;;;82.44;;
2824;SDS011;1420;51.324;12.344;2022-08-19T00:37:42;90.92;;;83.24;;
2824;SDS011;1420;51.324;12.344;2022-08-19T00:40:10;97.92;;;90.18;;
2824;SDS011;1420;51.324;12.344;2022-08-19T00:42:37;95.44;;;86.50;;
2824;SDS011;1420;51.324;12.344;2022-08-19T00:45:09;86.88;;;78.88;;
2824;SDS011;1420;51.324;12.344;2022-08-19T00:47:32;99.30;;;89.16;;
2824;SDS011;1420;51.324;12.344;2022-08-19T00:49:59;86.62;;;78.10;;
2824;SDS011;1420;51.324;12.344;2022-08-19T00:52:28;94.92;;;87.02;;
2824;SDS011;1420;51.324;12.344;2022-08-19T00:54:53;105.56;;;97.14;;
2824;SDS011;1420;51.324;12.344;2022-08-19T00:57:23;96.82;;;88.70;;
2824;SDS011;1420;51.324;12.344;2022-08-19T00:59:51;79.50;;;72.98;;
2824;SDS011;1420;51.324;12.344;2022-08-19T01:02:17;102.76;;;94.68;;
2824;SDS011;1420;51.324;12.344;2022-08-19T01:04:44;91.10;;;83.80;;
2824;SDS011;1420;51.324;12.344;2022-08-19T01:07:12;91.56;;;83.78;;
2824;SDS011;1420;51.324;12.344;2022-08-19T01:09:39;80.46;;;73.06;;
2824;SDS011;1420;51.324;12.344;2022-08-19T01:12:06;110.50;;;100.84;;
2824;SDS011;1420;51.324;12.344;2022-08-19T01:14:33;115.40;;;101.38;;
2824;SDS011;1420;51.324;12.344;2022-08-19T01:17:01;102.38;;;93.64;;
2824;SDS011;1420;51.324;12.344;2022-08-19T01:19:30;101.74;;;92.04;;
2824;SDS011;1420;51.324;12.344;2022-08-19T01:22:00;98.36;;;90.30;;
2824;SDS011;1420;51.324;12.344;2022-08-19T01:24:25;93.06;;;85.08;;
2824;SDS011;1420;51.324;12.344;2022-08-19T01:26:52;73.88;;;67.08;;
2824;SDS011;1420;51.324;12.344;2022-08-19T01:29:20;126.88;;;115.60;;
2824;SDS011;1420;51.324;12.344;2022-08-19T01:31:47;118.22;;;93.48;;
2824;SDS011;1420;51.324;12.344;2022-08-19T01:34:14;86.00;;;78.24;;
2824;SDS011;1420;51.324;12.344;2022-08-19T01:36:43;97.80;;;88.40;;
2824;SDS011;1420;51.324;12.344;2022-08-19T01:39:10;118.62;;;108.56;;
2824;SDS011;1420;51.324;12.344;2022-08-19T01:41:36;90.80;;;83.24;;
2824;SDS011;1420;51.324;12.344;2022-08-19T01:44:04;103.14;;;94.42;;
2824;SDS011;1420;51.324;12.344;2022-08-19T01:46:32;78.52;;;71.78;;
2824;SDS011;1420;51.324;12.344;2022-08-19T01:48:59;83.92;;;75.92;;
2824;SDS011;1420;51.324;12.344;2022-08-19T01:51:26;103.66;;;94.52;;
2824;SDS011;1420;51.324;12.344;2022-08-19T01:53:53;89.40;;;80.54;;
2824;SDS011;1420;51.324;12.344;2022-08-19T01:56:21;102.88;;;92.94;;
2824;SDS011;1420;51.324;12.344;2022-08-19T01:58:50;83.22;;;75.44;;
2824;SDS011;1420;51.324;12.344;2022-08-19T02:01:17;90.78;;;82.18;;
2824;SDS011;1420;51.324;12.344;2022-08-19T02:03:43;118.60;;;106.62;;
2824;SDS011;1420;51.324;12.344;2022-08-19T02:06:11;92.58;;;83.78;;
2824;SDS011;1420;51.324;12.344;2022-08-19T02:08:39;88.76;;;81.18;;
2824;SDS011;1420;51.324;12.344;2022-08-19T02:11:07;145.42;;;130.80;;
2824;SDS011;1420;51.324;12.344;2022-08-19T02:13:34;110.90;;;98.96;;
2824;SDS011;1420;51.324;12.344;2022-08-19T02:16:02;128.14;;;117.60;;
2824;SDS011;1420;51.324;12.344;2022-08-19T02:18:29;110.78;;;99.66;;
2824;SDS011;1420;51.324;12.344;2022-08-19T02:20:56;103.50;;;89.92;;
2824;SDS011;1420;51.324;12.344;2022-08-19T02:23:23;100.08;;;89.76;;
2824;SDS011;1420;51.324;12.344;2022-08-19T02:25:51;89.40;;;81.58;;
2824;SDS011;1420;51.324;12.344;2022-08-19T02:28:18;111.14;;;99.50;;
2824;SDS011;1420;51.324;12.344;2022-08-19T02:30:46;69.94;;;63.10;;
2824;SDS011;1420;51.324;12.344;2022-08-19T02:33:13;123.44;;;112.84;;
2824;SDS011;1420;51.324;12.344;2022-08-19T02:35:41;99.62;;;91.06;;
2824;SDS011;1420;51.324;12.344;2022-08-19T02:38:07;147.54;;;133.80;;
2824;SDS011;1420;51.324;12.344;2022-08-19T02:40:40;98.42;;;89.20;;
2824;SDS011;1420;51.324;12.344;2022-08-19T02:43:08;97.30;;;88.72;;
2824;SDS011;1420;51.324;12.344;2022-08-19T02:45:35;100.68;;;90.22;;
2824;SDS011;1420;51.324;12.344;2022-08-19T02:48:02;117.20;;;106.32;;
2824;SDS011;1420;51.324;12.344;2022-08-19T02:50:30;74.64;;;67.44;;
2824;SDS011;1420;51.324;12.344;2022-08-19T02:52:57;96.32;;;87.70;;
2824;SDS011;1420;51.324;12.344;2022-08-19T02:55:24;111.12;;;101.46;;
2824;SDS011;1420;51.324;12.344;2022-08-19T02:57:51;98.92;;;89.94;;
2824;SDS011;1420;51.324;12.344;2022-08-19T03:00:18;107.18;;;97.58;;
2824;SDS011;1420;51.324;12.344;2022-08-19T03:02:45;132.78;;;121.14;;
2824;SDS011;1420;51.324;12.344;2022-08-19T03:05:13;92.50;;;83.96;;
2824;SDS011;1420;51.324;12.344;2022-08-19T03:07:40;121.28;;;111.08;;
2824;SDS011;1420;51.324;12.344;2022-08-19T03:10:08;73.82;;;67.10;;
2824;SDS011;1420;51.324;12.344;2022-08-19T03:12:36;74.34;;;67.82;;
2824;SDS011;1420;51.324;12.344;2022-08-19T03:15:03;89.64;;;81.96;;
2824;SDS011;1420;51.324;12.344;2022-08-19T03:17:30;101.46;;;93.46;;
2824;SDS011;1420;51.324;12.344;2022-08-19T03:19:57;69.36;;;62.44;;
2824;SDS011;1420;51.324;12.344;2022-08-19T03:22:25;87.28;;;79.52;;
2824;SDS011;1420;51.324;12.344;2022-08-19T03:24:51;97.16;;;87.68;;
2824;SDS011;1420;51.324;12.344;2022-08-19T03:27:19;72.30;;;65.86;;
2824;SDS011;1420;51.324;12.344;2022-08-19T03:29:46;84.42;;;75.78;;
2824;SDS011;1420;51.324;12.344;2022-08-19T03:32:13;63.28;;;57.56;;
2824;SDS011;1420;51.324;12.344;2022-08-19T03:34:40;76.96;;;69.82;;
2824;SDS011;1420;51.324;12.344;2022-08-19T03:37:09;71.64;;;65.54;;
2824;SDS011;1420;51.324;12.344;2022-08-19T03:39:35;65.40;;;59.78;;
2824;SDS011;1420;51.324;12.344;2022-08-19T03:42:02;72.24;;;58.78;;
2824;SDS011;1420;51.324;12.344;2022-08-19T03:44:29;48.64;;;44.20;;
2824;SDS011;1420;51.324;12.344;2022-08-19T03:46:57;55.10;;;49.68;;
2824;SDS011;1420;51.324;12.344;2022-08-19T03:49:26;63.50;;;57.40;;
2824;SDS011;1420;51.324;12.344;2022-08-19T03:51:52;63.20;;;55.92;;
2824;SDS011;1420;51.324;12.344;2022-08-19T03:54:20;63.60;;;57.66;;
2824;SDS011;1420;51.324;12.344;2022-08-19T03:56:47;57.16;;;52.22;;
2824;SDS011;1420;51.324;12.344;2022-08-19T03:59:15;68.52;;;61.24;;
2824;SDS011;1420;51.324;12.344;2022-08-19T04:01:41;56.08;;;51.00;;
2824;SDS011;1420;51.324;12.344;2022-08-19T04:04:08;57.88;;;53.06;;
2824;SDS011;1420;51.324;12.344;2022-08-19T04:06:36;62.00;;;56.98;;
2824;SDS011;1420;51.324;12.344;2022-08-19T04:09:04;55.96;;;51.24;;
2824;SDS011;1420;51.324;12.344;2022-08-19T04:11:33;61.94;;;56.70;;
2824;SDS011;1420;51.324;12.344;2022-08-19T04:13:59;66.56;;;60.28;;
2824;SDS011;1420;51.324;12.344;2022-08-19T04:16:27;64.46;;;59.28;;
2824;SDS011;1420;51.324;12.344;2022-08-19T04:18:56;55.28;;;49.98;;
2824;SDS011;1420;51.324;12.344;2022-08-19T04:21:23;45.84;;;41.70;;
2824;SDS011;1420;51.324;12.344;2022-08-19T04:23:50;59.18;;;53.92;;
2824;SDS011;1420;51.324;12.344;2022-08-19T04:26:20;66.22;;;60.46;;
2824;SDS011;1420;51.324;12.344;2022-08-19T04:28:46;59.28;;;53.40;;
2824;SDS011;1420;51.324;12.344;2022-08-19T04:31:14;91.08;;;82.64;;
2824;SDS011;1420;51.324;12.344;2022-08-19T04:33:40;55.76;;;50.32;;
2824;SDS011;1420;51.324;12.344;2022-08-19T04:36:07;54.12;;;49.30;;
2824;SDS011;1420;51.324;12.344;2022-08-19T04:38:34;59.18;;;52.96;;
2824;SDS011;1420;51.324;12.344;2022-08-19T04:41:02;64.10;;;57.48;;
2824;SDS011;1420;51.324;12.344;2022-08-19T04:43:35;72.22;;;66.06;;
2824;SDS011;1420;51.324;12.344;2022-08-19T04:46:04;74.40;;;68.14;;
2824;SDS011;1420;51.324;12.344;2022-08-19T04:48:31;97.16;;;88.38;;
2824;SDS011;1420;51.324;12.344;2022-08-19T04:50:59;74.38;;;67.76;;
2824;SDS011;1420;51.324;12.344;2022-08-19T04:53:28;85.62;;;76.98;;
2824;SDS011;1420;51.324;12.344;2022-08-19T04:55:55;95.08;;;86.14;;
2824;SDS011;1420;51.324;12.344;2022-08-19T04:58:22;74.04;;;67.34;;
2824;SDS011;1420;51.324;12.344;2022-08-19T05:00:49;69.86;;;62.68;;
2824;SDS011;1420;51.324;12.344;2022-08-19T05:03:16;53.10;;;48.34;;
2824;SDS011;1420;51.324;12.344;2022-08-19T05:05:44;46.62;;;41.90;;
2824;SDS011;1420;51.324;12.344;2022-08-19T05:08:11;101.88;;;92.50;;
2824;SDS011;1420;51.324;12.344;2022-08-19T05:10:38;77.66;;;69.44;;
2824;SDS011;1420;51.324;12.344;2022-08-19T05:13:05;82.70;;;75.44;;
2824;SDS011;1420;51.324;12.344;2022-08-19T05:15:32;53.42;;;42.94;;
2824;SDS011;1420;51.324;12.344;2022-08-19T05:17:59;53.66;;;47.28;;
2824;SDS011;1420;51.324;12.344;2022-08-19T05:20:33;61.62;;;55.80;;
2824;SDS011;1420;51.324;12.344;2022-08-19T05:23:16;64.10;;;58.18;;
2824;SDS011;1420;51.324;12.344;2022-08-19T05:25:43;71.12;;;62.98;;
2824;SDS011;1420;51.324;12.344;2022-08-19T05:28:10;60.36;;;54.28;;
2824;SDS011;1420;51.324;12.344;2022-08-19T05:30:38;47.56;;;42.52;;
2824;SDS011;1420;51.324;12.344;2022-08-19T05:33:05;52.74;;;45.96;;
2824;SDS011;1420;51.324;12.344;2022-08-19T05:35:32;53.20;;;48.26;;
2824;SDS011;1420;51.324;12.344;2022-08-19T05:38:00;74.22;;;66.92;;
2824;SDS011;1420;51.324;12.344;2022-08-19T05:40:28;54.38;;;48.94;;
2824;SDS011;1420;51.324;12.344;2022-08-19T05:42:56;58.94;;;52.72;;
2824;SDS011;1420;51.324;12.344;2022-08-19T05:45:23;57.80;;;51.90;;
2824;SDS011;1420;51.324;12.344;2022-08-19T05:47:50;63.10;;;56.86;;
2824;SDS011;1420;51.324;12.344;2022-08-19T05:50:17;129.92;;;114.92;;
2824;SDS011;1420;51.324;12.344;2022-08-19T05:52:45;55.72;;;49.78;;
2824;SDS011;1420;51.324;12.344;2022-08-19T05:55:12;42.94;;;37.92;;
2824;SDS011;1420;51.324;12.344;2022-08-19T05:57:39;121.50;;;109.18;;
2824;SDS011;1420;51.324;12.344;2022-08-19T06:00:07;47.08;;;42.06;;
2824;SDS011;1420;51.324;12.344;2022-08-19T06:02:35;86.62;;;78.62;;
2824;SDS011;1420;51.324;12.344;2022-08-19T06:05:03;67.48;;;60.82;;
2824;SDS011;1420;51.324;12.344;2022-08-19T06:07:31;47.64;;;41.44;;
2824;SDS011;1420;51.324;12.344;2022-08-19T06:09:59;59.42;;;51.26;;
2824;SDS011;1420;51.324;12.344;2022-08-19T06:12:27;60.10;;;53.82;;
2824;SDS011;1420;51.324;12.344;2022-08-19T06:14:55;53.74;;;48.54;;
2824;SDS011;1420;51.324;12.344;2022-08-19T06:17:22;83.24;;;67.26;;
2824;SDS011;1420;51.324;12.344;2022-08-19T06:19:50;62.08;;;56.06;;
2824;SDS011;1420;51.324;12.344;2022-08-19T06:22:18;60.40;;;52.06;;
2824;SDS011;1420;51.324;12.344;2022-08-19T06:24:46;53.54;;;48.20;;
2824;SDS011;1420;51.324;12.344;2022-08-19T06:27:14;66.52;;;59.46;;
2824;SDS011;1420;51.324;12.344;2022-08-19T06:29:42;71.40;;;64.14;;
2824;SDS011;1420;51.324;12.344;2022-08-19T06:32:10;54.54;;;49.26;;
2824;SDS011;1420;51.324;12.344;2022-08-19T06:34:37;80.06;;;72.86;;
2824;SDS011;1420;51.324;12.344;2022-08-19T06:37:04;73.44;;;63.46;;
2824;SDS011;1420;51.324;12.344;2022-08-19T06:39:35;63.14;;;56.34;;
2824;SDS011;1420;51.324;12.344;2022-08-19T06:41:59;74.26;;;67.54;;
2824;SDS011;1420;51.324;12.344;2022-08-19T06:44:29;60.14;;;54.02;;
2824;SDS011;1420;51.324;12.344;2022-08-19T06:46:53;68.30;;;61.42;;
2824;SDS011;1420;51.324;12.344;2022-08-19T06:49:21;70.72;;;63.26;;
2824;SDS011;1420;51.324;12.344;2022-08-19T06:51:48;76.76;;;69.84;;
2824;SDS011;1420;51.324;12.344;2022-08-19T06:54:17;74.38;;;66.62;;
2824;SDS011;1420;51.324;12.344;2022-08-19T06:56:44;89.16;;;80.50;;
2824;SDS011;1420;51.324;12.344;2022-08-19T06:59:12;54.64;;;49.12;;
2824;SDS011;1420;51.324;12.344;2022-08-19T07:01:45;55.48;;;47.74;;
2824;SDS011;1420;51.324;12.344;2022-08-19T07:04:06;67.10;;;60.48;;
2824;SDS011;1420;51.324;12.344;2022-08-19T07:06:32;72.80;;;65.48;;
2824;SDS011;1420;51.324;12.344;2022-08-19T07:09:00;52.62;;;47.38;;
2824;SDS011;1420;51.324;12.344;2022-08-19T07:11:27;107.80;;;92.82;;
2824;SDS011;1420;51.324;12.344;2022-08-19T07:13:55;56.62;;;50.70;;
2824;SDS011;1420;51.324;12.344;2022-08-19T07:16:23;62.12;;;55.96;;
2824;SDS011;1420;51.324;12.344;2022-08-19T07:18:51;50.20;;;43.30;;
2824;SDS011;1420;51.324;12.344;2022-08-19T07:21:21;43.50;;;38.82;;
2824;SDS011;1420;51.324;12.344;2022-08-19T07:23:50;78.74;;;65.14;;
2824;SDS011;1420;51.324;12.344;2022-08-19T07:26:20;53.16;;;47.90;;
2824;SDS011;1420;51.324;12.344;2022-08-19T07:28:46;47.40;;;39.92;;
2824;SDS011;1420;51.324;12.344;2022-08-19T07:31:14;56.62;;;50.90;;
2824;SDS011;1420;51.324;12.344;2022-08-19T07:33:40;46.88;;;40.56;;
2824;SDS011;1420;51.324;12.344;2022-08-19T07:36:07;63.38;;;56.80;;
2824;SDS011;1420;51.324;12.344;2022-08-19T07:38:34;55.36;;;49.54;;
2824;SDS011;1420;51.324;12.344;2022-08-19T07:41:02;65.42;;;59.10;;
2824;SDS011;1420;51.324;12.344;2022-08-19T07:43:29;63.88;;;58.04;;
2824;SDS011;1420;51.324;12.344;2022-08-19T07:45:57;47.42;;;42.46;;
2824;SDS011;1420;51.324;12.344;2022-08-19T07:48:26;65.82;;;45.76;;
2824;SDS011;1420;51.324;12.344;2022-08-19T07:50:53;70.06;;;63.70;;
2824;SDS011;1420;51.324;12.344;2022-08-19T07:53:21;66.70;;;60.06;;
2824;SDS011;1420;51.324;12.344;2022-08-19T07:55:48;44.28;;;39.54;;
2824;SDS011;1420;51.324;12.344;2022-08-19T07:58:16;35.74;;;31.84;;
2824;SDS011;1420;51.324;12.344;2022-08-19T08:00:44;45.08;;;40.64;;
2824;SDS011;1420;51.324;12.344;2022-08-19T08:03:11;73.90;;;66.16;;
2824;SDS011;1420;51.324;12.344;2022-08-19T08:05:38;45.38;;;40.56;;
2824;SDS011;1420;51.324;12.344;2022-08-19T08:08:11;58.50;;;53.04;;
2824;SDS011;1420;51.324;12.344;2022-08-19T08:10:44;44.82;;;40.36;;
2824;SDS011;1420;51.324;12.344;2022-08-19T08:13:11;44.90;;;40.58;;
2824;SDS011;1420;51.324;12.344;2022-08-19T08:15:38;44.58;;;40.22;;
2824;SDS011;1420;51.324;12.344;2022-08-19T08:18:05;45.48;;;40.90;;
2824;SDS011;1420;51.324;12.344;2022-08-19T08:20:33;47.10;;;42.22;;
2824;SDS011;1420;51.324;12.344;2022-08-19T08:23:01;40.86;;;36.60;;
2824;SDS011;1420;51.324;12.344;2022-08-19T08:25:35;42.54;;;38.44;;
2824;SDS011;1420;51.324;12.344;2022-08-19T08:28:01;52.92;;;48.08;;
2824;SDS011;1420;51.324;12.344;2022-08-19T08:30:29;43.96;;;39.62;;
2824;SDS011;1420;51.324;12.344;2022-08-19T08:32:56;41.54;;;37.64;;
2824;SDS011;1420;51.324;12.344;2022-08-19T08:35:23;51.50;;;46.82;;
2824;SDS011;1420;51.324;12.344;2022-08-19T08:37:51;50.58;;;44.98;;
2824;SDS011;1420;51.324;12.344;2022-08-19T08:40:22;45.98;;;41.78;;
2824;SDS011;1420;51.324;12.344;2022-08-19T08:42:49;46.46;;;41.32;;
2824;SDS011;1420;51.324;12.344;2022-08-19T08:45:17;55.12;;;49.42;;
2824;SDS011;1420;51.324;12.344;2022-08-19T08:47:47;45.26;;;40.74;;
2824;SDS011;1420;51.324;12.344;2022-08-19T08:50:18;56.30;;;50.00;;
2824;SDS011;1420;51.324;12.344;2022-08-19T08:52:47;57.50;;;52.42;;
2824;SDS011;1420;51.324;12.344;2022-08-19T08:55:15;47.52;;;42.64;;
2824;SDS011;1420;51.324;12.344;2022-08-19T08:57:50;48.68;;;42.86;;
2824;SDS011;1420;51.324;12.344;2022-08-19T09:00:17;66.78;;;60.58;;
2824;SDS011;1420;51.324;12.344;2022-08-19T09:02:43;40.38;;;36.26;;
2824;SDS011;1420;51.324;12.344;2022-08-19T09:05:11;52.20;;;47.32;;
2824;SDS011;1420;51.324;12.344;2022-08-19T09:07:44;45.80;;;41.28;;
2824;SDS011;1420;51.324;12.344;2022-08-19T09:10:32;77.34;;;69.30;;
2824;SDS011;1420;51.324;12.344;2022-08-19T09:13:42;40.36;;;34.62;;
2824;SDS011;1420;51.324;12.344;2022-08-19T09:15:49;36.30;;;30.40;;
2824;SDS011;1420;51.324;12.344;2022-08-19T09:18:16;64.58;;;58.96;;
2824;SDS011;1420;51.324;12.344;2022-08-19T09:20:44;42.76;;;38.14;;
2824;SDS011;1420;51.324;12.344;2022-08-19T09:23:11;46.02;;;41.32;;
2824;SDS011;1420;51.324;12.344;2022-08-19T09:25:39;53.80;;;48.54;;
2824;SDS011;1420;51.324;12.344;2022-08-19T09:28:06;41.68;;;37.42;;
2824;SDS011;1420;51.324;12.344;2022-08-19T09:30:34;37.02;;;32.88;;
2824;SDS011;1420;51.324;12.344;2022-08-19T09:33:00;57.12;;;50.84;;
2824;SDS011;1420;51.324;12.344;2022-08-19T09:35:28;45.80;;;41.42;;
2824;SDS011;1420;51.324;12.344;2022-08-19T09:37:55;62.30;;;56.60;;
2824;SDS011;1420;51.324;12.344;2022-08-19T09:40:22;44.20;;;39.96;;
2824;SDS011;1420;51.324;12.344;2022-08-19T09:42:50;42.82;;;38.48;;
2824;SDS011;1420;51.324;12.344;2022-08-19T09:45:19;38.66;;;34.46;;
2824;SDS011;1420;51.324;12.344;2022-08-19T09:47:46;58.10;;;52.82;;
2824;SDS011;1420;51.324;12.344;2022-08-19T09:50:14;33.30;;;29.36;;
2824;SDS011;1420;51.324;12.344;2022-08-19T09:52:42;40.20;;;35.88;;
2824;SDS011;1420;51.324;12.344;2022-08-19T09:55:09;50.72;;;46.34;;
2824;SDS011;1420;51.324;12.344;2022-08-19T09:57:36;54.20;;;49.06;;
2824;SDS011;1420;51.324;12.344;2022-08-19T10:00:04;30.14;;;24.44;;
2824;SDS011;1420;51.324;12.344;2022-08-19T10:02:32;43.24;;;37.96;;
2824;SDS011;1420;51.324;12.344;2022-08-19T10:05:00;39.38;;;35.76;;
2824;SDS011;1420;51.324;12.344;2022-08-19T10:07:33;41.98;;;37.68;;
2824;SDS011;1420;51.324;12.344;2022-08-19T10:10:00;56.74;;;52.20;;
2824;SDS011;1420;51.324;12.344;2022-08-19T10:12:27;42.72;;;38.52;;
2824;SDS011;1420;51.324;12.344;2022-08-19T10:14:55;37.18;;;32.48;;
2824;SDS011;1420;51.324;12.344;2022-08-19T10:17:23;46.64;;;42.52;;
2824;SDS011;1420;51.324;12.344;2022-08-19T10:19:52;47.78;;;43.18;;
2824;SDS011;1420;51.324;12.344;2022-08-19T10:22:18;49.58;;;45.34;;
2824;SDS011;1420;51.324;12.344;2022-08-19T10:24:46;32.08;;;28.82;;
2824;SDS011;1420;51.324;12.344;2022-08-19T10:27:14;30.84;;;27.60;;
2824;SDS011;1420;51.324;12.344;2022-08-19T10:29:42;39.14;;;27.88;;
2824;SDS011;1420;51.324;12.344;2022-08-19T10:32:10;34.98;;;28.24;;
2824;SDS011;1420;51.324;12.344;2022-08-19T10:34:38;30.72;;;27.92;;
2824;SDS011;1420;51.324;12.344;2022-08-19T10:37:06;28.92;;;25.96;;
2824;SDS011;1420;51.324;12.344;2022-08-19T10:39:33;26.36;;;20.26;;
2824;SDS011;1420;51.324;12.344;2022-08-19T10:42:04;31.98;;;28.88;;
2824;SDS011;1420;51.324;12.344;2022-08-19T10:44:31;32.34;;;29.14;;
2824;SDS011;1420;51.324;12.344;2022-08-19T10:46:57;33.04;;;29.66;;
2824;SDS011;1420;51.324;12.344;2022-08-19T10:49:24;37.18;;;33.36;;
2824;SDS011;1420;51.324;12.344;2022-08-19T10:51:52;24.84;;;22.26;;
2824;SDS011;1420;51.324;12.344;2022-08-19T10:54:25;28.20;;;25.30;;
2824;SDS011;1420;51.324;12.344;2022-08-19T10:56:52;28.16;;;25.64;;
2824;SDS011;1420;51.324;12.344;2022-08-19T10:59:23;36.60;;;32.72;;
2824;SDS011;1420;51.324;12.344;2022-08-19T11:01:53;29.24;;;26.68;;
2824;SDS011;1420;51.324;12.344;2022-08-19T11:04:21;30.00;;;27.18;;
2824;SDS011;1420;51.324;12.344;2022-08-19T11:06:49;18.48;;;16.10;;
2824;SDS011;1420;51.324;12.344;2022-08-19T11:09:18;21.76;;;19.38;;
2824;SDS011;1420;51.324;12.344;2022-08-19T11:11:45;25.02;;;18.96;;
2824;SDS011;1420;51.324;12.344;2022-08-19T11:14:14;29.36;;;26.62;;
2824;SDS011;1420;51.324;12.344;2022-08-19T11:16:40;25.20;;;22.70;;
2824;SDS011;1420;51.324;12.344;2022-08-19T11:19:07;26.44;;;22.50;;
2824;SDS011;1420;51.324;12.344;2022-08-19T11:21:36;20.12;;;16.98;;
2824;SDS011;1420;51.324;12.344;2022-08-19T11:24:04;23.82;;;21.44;;
2824;SDS011;1420;51.324;12.344;2022-08-19T11:26:32;33.50;;;29.90;;
2824;SDS011;1420;51.324;12.344;2022-08-19T11:28:59;31.28;;;28.30;;
2824;SDS011;1420;51.324;12.344;2022-08-19T11:31:28;25.30;;;22.86;;
2824;SDS011;1420;51.324;12.344;2022-08-19T11:33:55;27.04;;;24.42;;
2824;SDS011;1420;51.324;12.344;2022-08-19T11:36:21;23.88;;;21.18;;
2824;SDS011;1420;51.324;12.344;2022-08-19T11:38:50;22.76;;;20.56;;
2824;SDS011;1420;51.324;12.344;2022-08-19T11:41:18;19.64;;;16.74;;
2824;SDS011;1420;51.324;12.344;2022-08-19T11:43:45;18.76;;;14.12;;
2824;SDS011;1420;51.324;12.344;2022-08-19T11:46:14;16.02;;;10.30;;
2824;SDS011;1420;51.324;12.344;2022-08-19T11:48:40;17.72;;;13.14;;
2824;SDS011;1420;51.324;12.344;2022-08-19T11:51:08;15.54;;;8.40;;
2824;SDS011;1420;51.324;12.344;2022-08-19T11:53:35;13.00;;;7.42;;
2824;SDS011;1420;51.324;12.344;2022-08-19T11:56:02;17.22;;;11.34;;
2824;SDS011;1420;51.324;12.344;2022-08-19T11:58:30;15.58;;;10.82;;
2824;SDS011;1420;51.324;12.344;2022-08-19T12:00:58;14.50;;;8.44;;
2824;SDS011;1420;51.324;12.344;2022-08-19T12:03:26;17.54;;;13.06;;
2824;SDS011;1420;51.324;12.344;2022-08-19T12:05:54;18.90;;;14.54;;
2824;SDS011;1420;51.324;12.344;2022-08-19T12:08:21;17.80;;;11.78;;
2824;SDS011;1420;51.324;12.344;2022-08-19T12:10:49;17.24;;;11.38;;
2824;SDS011;1420;51.324;12.344;2022-08-19T12:13:16;16.38;;;10.98;;
2824;SDS011;1420;51.324;12.344;2022-08-19T12:15:44;17.02;;;10.72;;
2824;SDS011;1420;51.324;12.344;2022-08-19T12:18:10;15.22;;;11.64;;
2824;SDS011;1420;51.324;12.344;2022-08-19T12:20:38;13.80;;;8.88;;
2824;SDS011;1420;51.324;12.344;2022-08-19T12:23:05;12.98;;;7.20;;
2824;SDS011;1420;51.324;12.344;2022-08-19T12:25:32;15.14;;;9.20;;
2824;SDS011;1420;51.324;12.344;2022-08-19T12:28:00;13.68;;;9.14;;
2824;SDS011;1420;51.324;12.344;2022-08-19T12:30:28;14.08;;;9.04;;
2824;SDS011;1420;51.324;12.344;2022-08-19T12:32:55;15.82;;;6.88;;
2824;SDS011;1420;51.324;12.344;2022-08-19T12:35:22;12.54;;;6.44;;
2824;SDS011;1420;51.324;12.344;2022-08-19T12:37:50;12.98;;;6.58;;
2824;SDS011;1420;51.324;12.344;2022-08-19T12:40:20;12.14;;;7.14;;
2824;SDS011;1420;51.324;12.344;2022-08-19T12:42:47;13.94;;;7.42;;
2824;SDS011;1420;51.324;12.344;2022-08-19T12:45:14;12.72;;;7.16;;
2824;SDS011;1420;51.324;12.344;2022-08-19T12:47:42;13.70;;;7.42;;
2824;SDS011;1420;51.324;12.344;2022-08-19T12:50:10;16.06;;;8.68;;
2824;SDS011;1420;51.324;12.344;2022-08-19T12:52:38;15.02;;;8.52;;
2824;SDS011;1420;51.324;12.344;2022-08-19T12:55:07;14.80;;;7.96;;
2824;SDS011;1420;51.324;12.344;2022-08-19T12:57:34;14.40;;;8.06;;
2824;SDS011;1420;51.324;12.344;2022-08-19T13:00:05;15.22;;;9.44;;
2824;SDS011;1420;51.324;12.344;2022-08-19T13:02:32;16.00;;;8.20;;
2824;SDS011;1420;51.324;12.344;2022-08-19T13:04:59;15.80;;;8.52;;
2824;SDS011;1420;51.324;12.344;2022-08-19T13:07:27;16.30;;;9.28;;
2824;SDS011;1420;51.324;12.344;2022-08-19T13:09:55;15.56;;;8.98;;
2824;SDS011;1420;51.324;12.344;2022-08-19T13:12:23;13.98;;;7.30;;
2824;SDS011;1420;51.324;12.344;2022-08-19T13:14:50;16.64;;;11.42;;
2824;SDS011;1420;51.324;12.344;2022-08-19T13:17:18;17.52;;;9.62;;
2824;SDS011;1420;51.324;12.344;2022-08-19T13:19:46;14.92;;;7.74;;
2824;SDS011;1420;51.324;12.344;2022-08-19T13:22:14;18.66;;;11.48;;
2824;SDS011;1420;51.324;12.344;2022-08-19T13:24:42;16.64;;;10.64;;
2824;SDS011;1420;51.324;12.344;2022-08-19T13:27:09;16.76;;;9.20;;
2824;SDS011;1420;51.324;12.344;2022-08-19T13:29:36;18.34;;;10.44;;
2824;SDS011;1420;51.324;12.344;2022-08-19T13:32:09;18.00;;;10.48;;
2824;SDS011;1420;51.324;12.344;2022-08-19T13:34:42;16.52;;;9.28;;
2824;SDS011;1420;51.324;12.344;2022-08-19T13:37:09;17.06;;;10.60;;
2824;SDS011;1420;51.324;12.344;2022-08-19T13:39:36;15.70;;;10.04;;
2824;SDS011;1420;51.324;12.344;2022-08-19T13:42:07;17.24;;;9.60;;
2824;SDS011;1420;51.324;12.344;2022-08-19T13:44:35;19.22;;;10.72;;
2824;SDS011;1420;51.324;12.344;2022-08-19T13:47:03;15.92;;;9.86;;
2824;SDS011;1420;51.324;12.344;2022-08-19T13:49:29;16.14;;;10.16;;
2824;SDS011;1420;51.324;12.344;2022-08-19T13:51:56;15.16;;;8.76;;
2824;SDS011;1420;51.324;12.344;2022-08-19T13:54:24;17.66;;;10.72;;
2824;SDS011;1420;51.324;12.344;2022-08-19T13:56:52;16.78;;;10.66;;
2824;SDS011;1420;51.324;12.344;2022-08-19T13:59:20;17.58;;;11.68;;
2824;SDS011;1420;51.324;12.344;2022-08-19T14:01:47;20.72;;;11.74;;
2824;SDS011;1420;51.324;12.344;2022-08-19T14:04:15;15.54;;;10.38;;
2824;SDS011;1420;51.324;12.344;2022-08-19T14:06:42;18.14;;;11.70;;
2824;SDS011;1420;51.324;12.344;2022-08-19T14:09:09;20.00;;;10.16;;
2824;SDS011;1420;51.324;12.344;2022-08-19T14:11:36;17.20;;;10.92;;
2824;SDS011;1420;51.324;12.344;2022-08-19T14:14:03;17.88;;;12.48;;
2824;SDS011;1420;51.324;12.344;2022-08-19T14:16:31;20.62;;;10.22;;
2824;SDS011;1420;51.324;12.344;2022-08-19T14:18:59;16.30;;;10.90;;
2824;SDS011;1420;51.324;12.344;2022-08-19T14:21:27;18.00;;;11.24;;
2824;SDS011;1420;51.324;12.344;2022-08-19T14:23:54;17.24;;;10.70;;
2824;SDS011;1420;51.324;12.344;2022-08-19T14:26:22;15.40;;;9.86;;
2824;SDS011;1420;51.324;12.344;2022-08-19T14:28:49;14.82;;;9.90;;
2824;SDS011;1420;51.324;12.344;2022-08-19T14:31:16;16.14;;;11.30;;
2824;SDS011;1420;51.324;12.344;2022-08-19T14:33:43;15.30;;;9.76;;
2824;SDS011;1420;51.324;12.344;2022-08-19T14:36:11;14.02;;;8.24;;